DEWPA EDLW-

Flight info

Callsign DEWPA
Flight time N/A
Altitude
Route
Aircraft C404

Departure

Time 2026-05-04 16:30
Airport Dortmund Airport (EDLW)

Arrival

Time N/A
Airport -
Time Latitude Longitude Altitude Speed Heading
2026-05-04 16:20 51.51236 7.60521 444 ft 0 kts 104°
2026-05-04 16:21 51.51251 7.60453 444 ft 6 kts 243°
2026-05-04 16:22 51.51209 7.60331 439 ft 8 kts 239°
2026-05-04 16:22 51.51225 7.60299 439 ft 18 kts 101°
2026-05-04 16:23 51.51391 7.60717 426 ft 26 kts 60°
2026-05-04 16:24 51.51679 7.61332 426 ft 26 kts 60°
2026-05-04 16:25 51.51871 7.61876 414 ft 27 kts 60°
2026-05-04 16:26 51.52105 7.62387 413 ft 0 kts 330°
2026-05-04 16:26 51.52135 7.62359 414 ft 0 kts 329°
2026-05-04 16:28 51.52198 7.62257 415 ft 0 kts 238°
2026-05-04 16:29 51.51411 7.60081 548 ft 135 kts 240°
2026-05-04 16:30 51.49049 7.59246 1981 ft 146 kts 131°
2026-05-04 16:31 51.49413 7.62398 1607 ft 143 kts 70°
2026-05-04 16:31 51.51273 7.66976 1314 ft 203 kts 59°
2026-05-04 16:32 51.54135 7.71544 1192 ft 203 kts 319°
2026-05-04 16:33 51.54050 7.67377 1135 ft 203 kts 244°
2026-05-04 16:33 51.52698 7.63647 691 ft 158 kts 257°
2026-05-04 16:34 51.51946 7.61536 412 ft 79 kts 243°
2026-05-04 16:34 51.51596 7.60562 422 ft 127 kts 240°
2026-05-04 16:35 51.49328 7.58843 1352 ft 179 kts 139°
2026-05-04 16:35 51.50607 7.64990 1170 ft 222 kts 59°
2026-05-04 16:36 51.51411 7.66987 1426 ft 214 kts 57°
2026-05-04 16:36 51.51439 7.70136 1262 ft 204 kts 225°
2026-05-04 16:37 51.52545 7.70441 1382 ft 203 kts 132°
2026-05-04 16:37 51.51628 7.69701 1474 ft 197 kts 272°
2026-05-04 16:37 51.53689 7.68687 2069 ft 121 kts 321°
2026-05-04 16:38 51.53948 7.66938 1406 ft 117 kts 240°
2026-05-04 16:39 51.51960 7.61585 425 ft 205 kts 241°
2026-05-04 16:39 51.50360 7.59088 1447 ft 136 kts 136°
2026-05-04 16:40 51.50174 7.62451 1939 ft 187 kts 68°
2026-05-04 16:40 51.51798 7.65871 1380 ft 191 kts 15°
2026-05-04 16:41 51.52997 7.64353 1137 ft 98 kts 236°
2026-05-04 16:41 51.52043 7.61819 416 ft 86 kts 241°
2026-05-04 16:42 51.51577 7.60608 409 ft 13 kts 166°
2026-05-04 16:43 51.51535 7.60761 414 ft 0 kts 72°
2026-05-04 16:43 51.51539 7.60782 415 ft 4 kts 73°
2026-05-04 16:43 51.51548 7.60834 416 ft 5 kts 80°
2026-05-04 16:44 51.51551 7.60852 419 ft 0 kts 76°
2026-05-04 16:45 51.51552 7.60859 419 ft 4 kts 76°